Pratica Di Mare, Italia

02:26 PM CEST del 02 Ottobre 2014 (GMT +0200)
Torvajanica Alta, Pomezia | Change Station
CLOSE
Current Station
Stazione meteo personale
Location: Torvaianica Alta, LAZIO
Altitudine: 128 ft
Stazioni meteo nelle vicinanze
Avvisi attivi: Thunderstorms

Alt. 128 ft 41.63 °N, 12.49 °E | Updated 7 seconds ago

Scattered Clouds
Nubi sparse
77.7 °F
Sembra 80 °F
N
3.3
Vento Variabile Vento da SE
Gusts 5.4 mph

Oggi
Massima -- | Minima -- °F
--% Possibilità di precip.
Ieri
Massima -- | Minima -- °F
Precip. -- in
7:07 AM 6:50 PM
Primo quarto, 58% visible
Pressione 30.21 in
Visibilità 6.2 miglia
Nuvole Nubi sparse 3000 ft
Indice di calore 80 °F
Punto di rugiada 68 °F
Umidità 73%
Piovosità 0.00 in
Spessore del manto nevoso Non disponibile.
Raggi UV 4 fuori da 12
Polline Non disponibile.
Qualità dell'aria Non disponibile.
Flu Activity Non disponibile.
METAR LIRF 011220Z 19007KT 140V240 9999 SCT030 25/18 Q1023 NOSIG

More Conditions Fewer Conditions

Pressione 30.21 in
Visibilità 6.2 miglia
Nuvole Nubi sparse 3000 ft
Indice di calore 80 °F
Punto di rugiada 68 °F
Umidità 73%
Piovosità 0.00 in
Spessore del manto nevoso Non disponibile.
Raggi UV 4 fuori da 12
Polline Non disponibile.
Qualità dell'aria Non disponibile.
Flu Activity Non disponibile.
METAR LIRF 011220Z 19007KT 140V240 9999 SCT030 25/18 Q1023 NOSIG

More Conditions Fewer Conditions

10-Day Weather Forecast

Almanac

Astronomia

Oct. 02, 2014 Alba Tramonto
Ora attuale 07:07 CEST 18:50 CEST
Crepuscolo civile 06:40 CEST 19:18 CEST
Crepuscolo nautico 06:07 CEST 19:50 CEST
Crepuscolo astronomico 05:35 CEST 20:23 CEST
Luna 14:47 CEST 00:02 CEST
Estensione della luce visibile 12h 38m
Lunghezza del giorno
11h 42m
Tomorrow will be 2m 45s shorter.
Primo quarto, 58% of the Moon is Illuminated
Oggi
Primo quarto
Ott 8
Luna piena
Ott 15
Ultimo quarto
Ott 23
Nuovo
Ott 30
Primo quarto

Minime e massime di ieri

Massime Regione Minime Regione

Community

WunderPhotos

Upload Photos

1,758,223 foto caricate!

WunderBlogs® & News

Nearby

Qualità dell'aria

Not available.

Profondità neve

Not available.

Attività sismica

Città  Distanza Mag. Data & Ora
Non sono state riportate attività sismiche nelle vicinanze.
Minimo Magnitudo Mostrato è 2.5.

Temperature delle acque costiere

Località Temperatura
Nessun dato dalle stazioni

Stazioni meteo nelle vicinanze